Time;durP1;ratioP1;P1;durP2;ratioP2;P2;SDS_P1;SDS_P2;PMS_P1;PMS_P2;Temp;Humidity;BMP_temperature;BMP_pressure;BME280_temperature;BME280_humidity;BME280_pressure;Samples;Min_cycle;Max_cycle;Signal;HPM_P1;HPM_P2
2022/08/05 00:01:39;;;;;;;20.42;10.38;;;;;;;;;;4868927;29;20107;-84
2022/08/05 00:04:04;;;;;;;18.10;9.20;;;;;;;;;;4932075;29;20127;-83
2022/08/05 00:06:30;;;;;;;19.98;10.52;;;;;;;;;;4901812;29;20489;-82
2022/08/05 00:08:57;;;;;;;17.70;9.93;;;;;;;;;;4912485;29;20088;-84
2022/08/05 00:11:22;;;;;;;19.67;9.65;;;;;;;;;;4916016;29;20036;-83
2022/08/05 00:13:47;;;;;;;19.75;10.40;;;;;;;;;;4915830;29;20086;-83
2022/08/05 00:16:13;;;;;;;20.73;9.32;;;;;;;;;;4884942;29;20107;-82
2022/08/05 00:18:40;;;;;;;17.15;9.50;;;;;;;;;;4928286;29;20035;-83
2022/08/05 00:21:06;;;;;;;19.88;9.70;;;;;;;;;;4900954;29;20036;-84
2022/08/05 00:23:31;;;;;;;18.80;8.95;;;;;;;;;;4884748;29;20122;-83
2022/08/05 00:25:57;;;;;;;21.35;8.95;;;;;;;;;;4886003;29;20035;-83
2022/08/05 00:28:22;;;;;;;22.75;8.77;;;;;;;;;;4899702;29;20021;-84
2022/08/05 00:30:47;;;;;;;13.32;8.25;;;;;;;;;;4916936;29;20066;-84
2022/08/05 00:33:15;;;;;;;12.40;8.85;;;;;;;;;;4917120;29;20359;-82
2022/08/05 00:35:40;;;;;;;15.38;8.68;;;;;;;;;;4900523;29;20035;-82
2022/08/05 00:38:06;;;;;;;21.13;9.35;;;;;;;;;;4902456;29;20086;-83
2022/08/05 00:40:32;;;;;;;13.75;8.43;;;;;;;;;;4903723;29;20047;-83
2022/08/05 00:42:59;;;;;;;15.77;9.80;;;;;;;;;;4918779;29;20476;-83
2022/08/05 00:45:24;;;;;;;15.55;9.60;;;;;;;;;;4918331;29;20027;-83
2022/08/05 00:47:50;;;;;;;18.60;10.48;;;;;;;;;;4918475;29;20333;-83
2022/08/05 00:50:15;;;;;;;16.67;9.45;;;;;;;;;;4903125;29;20043;-84
2022/08/05 00:52:41;;;;;;;17.58;8.77;;;;;;;;;;4933781;29;20059;-84
2022/08/05 00:55:06;;;;;;;16.88;9.18;;;;;;;;;;4920700;29;20054;-83
2022/08/05 00:57:32;;;;;;;18.95;10.13;;;;;;;;;;4918536;29;20042;-83
2022/08/05 00:59:57;;;;;;;16.25;8.93;;;;;;;;;;4903086;29;20055;-84
2022/08/05 01:02:22;;;;;;;22.15;10.52;;;;;;;;;;4903549;29;20035;-84
2022/08/05 01:04:48;;;;;;;15.82;9.88;;;;;;;;;;4918651;29;20110;-84
2022/08/05 01:07:13;;;;;;;19.52;10.63;;;;;;;;;;4950480;29;20042;-84
2022/08/05 01:09:40;;;;;;;15.90;11.25;;;;;;;;;;4950322;29;20059;-83
2022/08/05 01:12:07;;;;;;;16.85;10.20;;;;;;;;;;4936333;29;20030;-84
2022/08/05 01:15:00;;;;;;;19.27;10.18;;;;;;;;;;4917706;29;20130;-84
2022/08/05 01:17:42;;;;;;;14.63;10.23;;;;;;;;;;4903060;29;20051;-84
2022/08/05 01:20:45;;;;;;;18.70;9.93;;;;;;;;;;4886036;29;20031;-83
2022/08/05 01:23:34;;;;;;;18.30;10.35;;;;;;;;;;4919157;29;20453;-84
2022/08/05 01:26:38;;;;;;;16.65;11.02;;;;;;;;;;4940482;28;20027;-83
2022/08/05 01:29:07;;;;;;;14.57;10.23;;;;;;;;;;4857404;29;20538;-84
2022/08/05 01:31:36;;;;;;;15.73;9.05;;;;;;;;;;4935205;29;20058;-84
2022/08/05 01:34:31;;;;;;;18.55;10.48;;;;;;;;;;4918595;29;20167;-84
2022/08/05 01:37:14;;;;;;;18.42;9.75;;;;;;;;;;4935440;29;20046;-83
2022/08/05 01:39:39;;;;;;;16.40;10.65;;;;;;;;;;4901869;29;20071;-83
2022/08/05 01:42:05;;;;;;;16.10;11.30;;;;;;;;;;4931130;29;20421;-84
2022/08/05 01:44:31;;;;;;;18.08;11.63;;;;;;;;;;4929830;29;20047;-83
2022/08/05 01:46:56;;;;;;;17.60;11.13;;;;;;;;;;4869936;29;20119;-83
2022/08/05 01:49:22;;;;;;;17.00;10.65;;;;;;;;;;4918327;29;20062;-83
2022/08/05 01:51:48;;;;;;;15.77;11.05;;;;;;;;;;4907336;29;20579;-84
2022/08/05 01:54:13;;;;;;;15.77;11.77;;;;;;;;;;4903037;29;20063;-83
2022/08/05 01:56:39;;;;;;;19.42;9.77;;;;;;;;;;4902285;29;20116;-82
2022/08/05 01:59:08;;;;;;;23.33;11.88;;;;;;;;;;4934897;29;20031;-83
2022/08/05 02:01:35;;;;;;;18.42;11.60;;;;;;;;;;4918694;29;20055;-81
2022/08/05 02:04:00;;;;;;;19.55;10.93;;;;;;;;;;4919281;29;20034;-82
2022/08/05 02:06:25;;;;;;;17.83;9.63;;;;;;;;;;4933601;29;20031;-83
2022/08/05 02:08:51;;;;;;;14.85;9.45;;;;;;;;;;4887659;29;20063;-83
2022/08/05 02:11:16;;;;;;;15.85;9.45;;;;;;;;;;4936424;29;20038;-83
2022/08/05 02:13:48;;;;;;;21.80;9.80;;;;;;;;;;4925429;29;20027;-84
2022/08/05 02:16:22;;;;;;;19.25;10.93;;;;;;;;;;4950860;29;20080;-84
2022/08/05 02:18:57;;;;;;;18.23;9.80;;;;;;;;;;4935502;29;20032;-85
2022/08/05 02:21:44;;;;;;;18.48;9.75;;;;;;;;;;4886764;29;20484;-84
2022/08/05 02:24:11;;;;;;;16.58;9.00;;;;;;;;;;4934344;29;20032;-83
2022/08/05 02:26:59;;;;;;;17.77;8.98;;;;;;;;;;4942195;29;20031;-84
2022/08/05 02:29:25;;;;;;;16.83;8.82;;;;;;;;;;4884098;29;20114;-84
2022/08/05 02:31:50;;;;;;;15.95;8.90;;;;;;;;;;4923088;29;20028;-84
2022/08/05 02:34:15;;;;;;;18.25;9.25;;;;;;;;;;4914524;29;20515;-84
2022/08/05 02:36:52;;;;;;;16.73;8.57;;;;;;;;;;4917426;29;20028;-84
2022/08/05 02:39:18;;;;;;;13.63;7.43;;;;;;;;;;4917860;29;20040;-83
2022/08/05 02:41:45;;;;;;;15.98;7.88;;;;;;;;;;4900209;29;20032;-84
2022/08/05 02:44:10;;;;;;;14.63;7.68;;;;;;;;;;4917485;29;20035;-82
2022/08/05 02:46:35;;;;;;;11.85;7.80;;;;;;;;;;4900457;29;20107;-82
2022/08/05 02:49:01;;;;;;;13.65;7.18;;;;;;;;;;4916380;29;20036;-83
2022/08/05 02:51:26;;;;;;;11.48;7.13;;;;;;;;;;4917108;29;20047;-82
2022/08/05 02:53:52;;;;;;;11.75;6.90;;;;;;;;;;4933090;29;20452;-82
2022/08/05 02:56:17;;;;;;;14.27;7.40;;;;;;;;;;4916882;29;20075;-83
2022/08/05 02:58:43;;;;;;;17.92;7.70;;;;;;;;;;4917975;29;20023;-82
2022/08/05 03:01:17;;;;;;;13.48;7.40;;;;;;;;;;4935256;29;20059;-82
2022/08/05 03:03:42;;;;;;;15.23;7.25;;;;;;;;;;4892733;29;20506;-84
2022/08/05 03:06:09;;;;;;;16.85;7.35;;;;;;;;;;4922131;29;20529;-85
2022/08/05 03:08:35;;;;;;;13.18;7.45;;;;;;;;;;4900469;29;20102;-85
2022/08/05 03:11:00;;;;;;;13.13;7.93;;;;;;;;;;4937595;29;20113;-84
2022/08/05 03:13:25;;;;;;;12.70;7.88;;;;;;;;;;4889874;29;20162;-83
2022/08/05 03:15:51;;;;;;;13.82;8.05;;;;;;;;;;4922312;29;20630;-84
2022/08/05 03:18:16;;;;;;;10.48;7.97;;;;;;;;;;4921895;29;20035;-84
2022/08/05 03:20:42;;;;;;;13.85;9.20;;;;;;;;;;4906317;29;20055;-83
2022/08/05 03:23:08;;;;;;;16.70;9.10;;;;;;;;;;4938275;29;20038;-83
2022/08/05 03:25:33;;;;;;;13.60;8.50;;;;;;;;;;4936898;29;20058;-84
2022/08/05 03:27:59;;;;;;;16.52;8.90;;;;;;;;;;4921584;29;20398;-82
2022/08/05 03:30:25;;;;;;;13.20;8.75;;;;;;;;;;4922060;29;20063;-82
2022/08/05 03:32:51;;;;;;;15.50;8.35;;;;;;;;;;4938120;29;20108;-84
2022/08/05 03:35:16;;;;;;;15.38;9.38;;;;;;;;;;4938210;29;20040;-83
2022/08/05 03:37:42;;;;;;;21.38;10.52;;;;;;;;;;4889889;29;20065;-84
2022/08/05 03:40:08;;;;;;;12.45;9.35;;;;;;;;;;4921953;29;20163;-84
2022/08/05 03:42:34;;;;;;;19.95;10.32;;;;;;;;;;4921759;29;20377;-84
2022/08/05 03:44:59;;;;;;;17.00;9.45;;;;;;;;;;4938832;29;20055;-87
2022/08/05 03:47:25;;;;;;;15.90;10.02;;;;;;;;;;4906599;29;20542;-85
2022/08/05 03:49:50;;;;;;;16.95;9.27;;;;;;;;;;4890172;29;20036;-85
2022/08/05 03:52:18;;;;;;;13.10;9.50;;;;;;;;;;4903444;29;20058;-84
2022/08/05 03:54:55;;;;;;;19.10;9.68;;;;;;;;;;4901154;29;20040;-83
2022/08/05 03:57:24;;;;;;;15.23;10.13;;;;;;;;;;4904800;29;20028;-84
2022/08/05 03:59:54;;;;;;;13.55;9.57;;;;;;;;;;4904763;29;20054;-82
2022/08/05 04:02:20;;;;;;;19.05;10.65;;;;;;;;;;4902022;29;20038;-84
2022/08/05 04:04:46;;;;;;;15.73;10.75;;;;;;;;;;4894510;29;20139;-85
2022/08/05 04:07:11;;;;;;;16.40;9.57;;;;;;;;;;4902319;29;20063;-81
2022/08/05 04:09:38;;;;;;;17.02;9.82;;;;;;;;;;4931836;29;20027;-80
2022/08/05 04:12:03;;;;;;;18.17;10.32;;;;;;;;;;4897984;29;20107;-78
2022/08/05 04:14:29;;;;;;;23.00;10.13;;;;;;;;;;4900333;29;20035;-78
2022/08/05 04:16:54;;;;;;;18.77;10.10;;;;;;;;;;4897830;29;20051;-78
2022/08/05 04:19:20;;;;;;;20.48;9.95;;;;;;;;;;4929320;29;20567;-78
2022/08/05 04:21:45;;;;;;;15.25;9.93;;;;;;;;;;4882121;29;20040;-76
2022/08/05 04:24:10;;;;;;;18.20;11.05;;;;;;;;;;4913827;29;20061;-79
2022/08/05 04:26:36;;;;;;;17.27;9.63;;;;;;;;;;4897832;29;20085;-77
2022/08/05 04:29:01;;;;;;;15.82;10.45;;;;;;;;;;4914466;29;20597;-78
2022/08/05 04:31:26;;;;;;;14.32;9.40;;;;;;;;;;4929560;29;20043;-77
2022/08/05 04:33:52;;;;;;;20.92;10.05;;;;;;;;;;4909288;29;20070;-78
2022/08/05 04:36:17;;;;;;;17.25;9.88;;;;;;;;;;4880224;29;20070;-77
2022/08/05 04:38:43;;;;;;;18.15;9.68;;;;;;;;;;4904257;29;20052;-77
2022/08/05 04:41:10;;;;;;;16.65;10.50;;;;;;;;;;4921029;29;20028;-77
2022/08/05 04:43:39;;;;;;;14.52;8.98;;;;;;;;;;4909924;29;20031;-86
2022/08/05 04:46:05;;;;;;;17.85;9.52;;;;;;;;;;4916879;29;20043;-84
2022/08/05 04:48:30;;;;;;;18.90;9.80;;;;;;;;;;4918482;29;20059;-85
2022/08/05 04:50:56;;;;;;;21.45;9.63;;;;;;;;;;4933820;29;20032;-85
2022/08/05 04:53:21;;;;;;;19.83;9.77;;;;;;;;;;4901112;29;20092;-85
2022/08/05 04:55:46;;;;;;;14.57;8.80;;;;;;;;;;4902469;29;20062;-86
2022/08/05 04:58:13;;;;;;;16.20;9.07;;;;;;;;;;4919542;29;20406;-85
2022/08/05 05:00:39;;;;;;;14.52;8.85;;;;;;;;;;4919268;29;20031;-85
2022/08/05 05:03:04;;;;;;;15.98;8.80;;;;;;;;;;4902941;29;20034;-84
2022/08/05 05:05:30;;;;;;;24.02;8.95;;;;;;;;;;4903846;29;20106;-85
2022/08/05 05:07:59;;;;;;;14.48;7.45;;;;;;;;;;4918432;29;20163;-84
2022/08/05 05:10:24;;;;;;;19.77;8.27;;;;;;;;;;4919267;29;20086;-84
2022/08/05 05:12:50;;;;;;;20.50;8.43;;;;;;;;;;4903804;29;20415;-86
2022/08/05 05:15:15;;;;;;;14.20;7.90;;;;;;;;;;4934959;29;20024;-86
2022/08/05 05:17:42;;;;;;;14.93;7.82;;;;;;;;;;4911278;29;20555;-85
2022/08/05 05:20:09;;;;;;;13.43;8.73;;;;;;;;;;4887619;29;20389;-84
2022/08/05 05:22:34;;;;;;;12.43;7.28;;;;;;;;;;4902684;29;20059;-87
2022/08/05 05:25:00;;;;;;;13.38;6.80;;;;;;;;;;4902565;29;20396;-84
2022/08/05 05:27:26;;;;;;;16.73;7.75;;;;;;;;;;4934988;29;20156;-86
2022/08/05 05:29:52;;;;;;;17.95;8.05;;;;;;;;;;4933103;29;20038;-84
2022/08/05 05:32:17;;;;;;;12.32;6.72;;;;;;;;;;4933942;29;20031;-85
2022/08/05 05:34:42;;;;;;;14.50;7.40;;;;;;;;;;4934745;29;20048;-85
2022/08/05 05:37:08;;;;;;;13.60;7.63;;;;;;;;;;4932334;29;20035;-86
2022/08/05 05:39:34;;;;;;;11.43;7.50;;;;;;;;;;4889485;29;20051;-85
2022/08/05 05:41:59;;;;;;;12.18;7.00;;;;;;;;;;4905586;29;20403;-85
2022/08/05 05:44:25;;;;;;;15.80;7.35;;;;;;;;;;4915432;29;20115;-85
2022/08/05 05:46:50;;;;;;;13.10;7.88;;;;;;;;;;4919603;29;20143;-85
2022/08/05 05:49:18;;;;;;;13.15;7.60;;;;;;;;;;4910813;29;20143;-85
2022/08/05 05:51:43;;;;;;;22.48;7.45;;;;;;;;;;4879018;29;20032;-84
2022/08/05 05:54:08;;;;;;;11.93;6.55;;;;;;;;;;4898796;29;20064;-85
2022/08/05 05:56:34;;;;;;;10.70;6.90;;;;;;;;;;4899522;29;20103;-86
2022/08/05 05:59:04;;;;;;;10.45;6.22;;;;;;;;;;4898080;29;20477;-86
2022/08/05 06:01:30;;;;;;;13.82;7.25;;;;;;;;;;4913667;29;20165;-85
2022/08/05 06:03:56;;;;;;;10.65;6.90;;;;;;;;;;4910160;29;20127;-85
2022/08/05 06:06:21;;;;;;;15.73;6.85;;;;;;;;;;4898964;29;20119;-84
2022/08/05 06:08:47;;;;;;;15.07;7.57;;;;;;;;;;4898013;29;20066;-85
2022/08/05 06:11:12;;;;;;;9.68;6.47;;;;;;;;;;4897217;29;20074;-83
2022/08/05 06:13:37;;;;;;;16.52;7.15;;;;;;;;;;4883868;29;20080;-85
2022/08/05 06:16:03;;;;;;;18.10;6.43;;;;;;;;;;4909897;29;20505;-85
2022/08/05 06:18:32;;;;;;;10.20;6.03;;;;;;;;;;4907124;29;20087;-85
2022/08/05 06:20:58;;;;;;;14.40;6.65;;;;;;;;;;4895291;29;20397;-84
2022/08/05 06:23:23;;;;;;;20.48;6.95;;;;;;;;;;4898648;29;20039;-85
2022/08/05 06:25:50;;;;;;;10.88;6.30;;;;;;;;;;4882282;29;20454;-84
2022/08/05 06:28:15;;;;;;;13.07;5.85;;;;;;;;;;4899741;29;20008;-86
2022/08/05 06:30:40;;;;;;;12.98;5.88;;;;;;;;;;4899576;29;20366;-85
2022/08/05 06:33:06;;;;;;;15.77;6.38;;;;;;;;;;4882492;29;20126;-86
2022/08/05 06:35:31;;;;;;;11.88;5.43;;;;;;;;;;4899871;29;21493;-85
2022/08/05 06:37:56;;;;;;;9.50;4.85;;;;;;;;;;4887678;29;20039;-84
2022/08/05 06:40:22;;;;;;;9.40;4.30;;;;;;;;;;4952840;29;20167;-84
2022/08/05 06:42:49;;;;;;;7.63;4.78;;;;;;;;;;4921502;29;20036;-86
2022/08/05 06:45:14;;;;;;;11.52;4.72;;;;;;;;;;4902301;29;20377;-85
2022/08/05 06:47:39;;;;;;;11.20;4.65;;;;;;;;;;4936210;29;20151;-85
2022/08/05 06:50:05;;;;;;;10.38;3.90;;;;;;;;;;4916573;29;20115;-86
2022/08/05 06:52:30;;;;;;;11.13;4.00;;;;;;;;;;4919061;29;20039;-85
2022/08/05 06:54:56;;;;;;;11.35;3.88;;;;;;;;;;4906180;29;20070;-85
2022/08/05 06:57:21;;;;;;;7.15;4.20;;;;;;;;;;4906218;29;20554;-85
2022/08/05 06:59:47;;;;;;;9.57;4.70;;;;;;;;;;4921293;29;20027;-86
2022/08/05 07:02:12;;;;;;;11.68;4.13;;;;;;;;;;4904011;29;20059;-85
2022/08/05 07:04:37;;;;;;;8.25;3.58;;;;;;;;;;4913254;29;20051;-85
2022/08/05 07:07:03;;;;;;;8.43;4.05;;;;;;;;;;4922592;29;20056;-85
2022/08/05 07:09:28;;;;;;;9.05;3.95;;;;;;;;;;4920766;29;20047;-86
2022/08/05 07:11:54;;;;;;;11.02;4.30;;;;;;;;;;4905585;29;20037;-86
2022/08/05 07:17:04;;;;;;;13.85;4.88;;;;;;;;;;4909750;29;20098;-86
2022/08/05 07:19:29;;;;;;;8.13;3.95;;;;;;;;;;4889535;29;20023;-86
2022/08/05 07:21:55;;;;;;;11.20;3.50;;;;;;;;;;4919793;29;20035;-85
2022/08/05 07:24:21;;;;;;;6.40;2.88;;;;;;;;;;4921960;29;20053;-86
2022/08/05 07:26:47;;;;;;;9.52;3.28;;;;;;;;;;4921024;29;20345;-85
2022/08/05 07:29:13;;;;;;;15.35;3.97;;;;;;;;;;4936572;29;20032;-85
2022/08/05 07:31:39;;;;;;;9.52;3.70;;;;;;;;;;4920727;29;20050;-87
2022/08/05 07:34:04;;;;;;;7.38;2.95;;;;;;;;;;4951861;29;20357;-85
2022/08/05 07:36:32;;;;;;;7.68;2.92;;;;;;;;;;4904923;29;20055;-85
2022/08/05 07:38:58;;;;;;;7.28;2.42;;;;;;;;;;4920095;29;20048;-86
2022/08/05 07:41:23;;;;;;;4.22;1.70;;;;;;;;;;4936129;29;20504;-86
2022/08/05 07:43:49;;;;;;;8.75;1.77;;;;;;;;;;4936001;29;20119;-84
2022/08/05 07:46:14;;;;;;;5.90;2.05;;;;;;;;;;4888939;29;20027;-84
2022/08/05 07:48:40;;;;;;;6.03;1.50;;;;;;;;;;4905159;29;20090;-84
2022/08/05 07:51:05;;;;;;;12.68;1.77;;;;;;;;;;4912699;29;20100;-84
2022/08/05 07:53:30;;;;;;;4.97;1.50;;;;;;;;;;4921431;29;20049;-85
2022/08/05 07:55:56;;;;;;;8.65;1.90;;;;;;;;;;4935081;29;20040;-85
2022/08/05 07:58:21;;;;;;;4.63;1.45;;;;;;;;;;4920846;29;20032;-84
2022/08/05 08:00:47;;;;;;;5.22;1.73;;;;;;;;;;4937136;29;20499;-84
2022/08/05 08:03:12;;;;;;;6.78;1.67;;;;;;;;;;4935813;29;20032;-85
2022/08/05 08:05:38;;;;;;;6.32;1.60;;;;;;;;;;4936665;29;20559;-85
2022/08/05 08:08:04;;;;;;;6.43;2.00;;;;;;;;;;4920464;29;20104;-85
2022/08/05 08:10:29;;;;;;;5.20;1.92;;;;;;;;;;4936428;29;20031;-85
2022/08/05 08:12:55;;;;;;;4.43;1.35;;;;;;;;;;4905353;29;20522;-85
2022/08/05 08:15:20;;;;;;;3.83;1.17;;;;;;;;;;4906151;29;20074;-84
2022/08/05 08:17:45;;;;;;;7.70;1.45;;;;;;;;;;4940782;29;20041;-85
2022/08/05 08:20:11;;;;;;;5.22;1.10;;;;;;;;;;4935905;29;20034;-85
2022/08/05 08:22:37;;;;;;;6.90;1.35;;;;;;;;;;4936148;29;20490;-84
2022/08/05 08:25:02;;;;;;;5.63;1.42;;;;;;;;;;4920526;29;20086;-86
2022/08/05 08:27:29;;;;;;;8.55;1.50;;;;;;;;;;4913020;29;20400;-85
2022/08/05 08:29:54;;;;;;;3.78;1.42;;;;;;;;;;4904341;29;20035;-84
2022/08/05 08:32:20;;;;;;;4.88;1.45;;;;;;;;;;4934183;29;20040;-84
2022/08/05 08:34:45;;;;;;;4.00;1.20;;;;;;;;;;4919559;29;20046;-85
2022/08/05 08:37:10;;;;;;;5.28;1.50;;;;;;;;;;4935395;29;20130;-85
2022/08/05 08:39:36;;;;;;;4.10;1.65;;;;;;;;;;4919709;29;20071;-85
2022/08/05 08:42:01;;;;;;;4.18;1.45;;;;;;;;;;4919868;29;20499;-84
2022/08/05 08:44:29;;;;;;;3.83;1.02;;;;;;;;;;4919815;29;20035;-84
2022/08/05 08:46:54;;;;;;;4.15;1.15;;;;;;;;;;4927536;29;20051;-85
2022/08/05 08:49:20;;;;;;;4.55;1.52;;;;;;;;;;4936382;29;20033;-84
2022/08/05 08:51:54;;;;;;;3.30;1.10;;;;;;;;;;4936109;29;20050;-84
2022/08/05 08:54:19;;;;;;;4.65;1.00;;;;;;;;;;4935698;29;20028;-84
2022/08/05 08:56:44;;;;;;;7.38;1.85;;;;;;;;;;4936327;29;20074;-84
2022/08/05 08:59:10;;;;;;;4.40;1.63;;;;;;;;;;4933626;29;20074;-85
2022/08/05 09:01:35;;;;;;;6.57;1.25;;;;;;;;;;4919289;29;20035;-85
2022/08/05 09:04:01;;;;;;;6.50;1.30;;;;;;;;;;4919932;29;20038;-85
2022/08/05 09:06:27;;;;;;;3.13;1.10;;;;;;;;;;4935331;29;20051;-85
2022/08/05 09:08:53;;;;;;;4.57;1.10;;;;;;;;;;4919201;29;20035;-85
2022/08/05 09:11:18;;;;;;;5.28;1.15;;;;;;;;;;4919796;29;20099;-85
2022/08/05 09:13:44;;;;;;;3.35;1.10;;;;;;;;;;4902856;29;20028;-85
2022/08/05 09:16:10;;;;;;;3.22;1.00;;;;;;;;;;4934772;29;20123;-85
2022/08/05 09:18:35;;;;;;;1.88;0.80;;;;;;;;;;4902753;29;20468;-85
2022/08/05 09:21:01;;;;;;;3.40;0.90;;;;;;;;;;4918065;29;20365;-85
2022/08/05 09:23:27;;;;;;;3.17;0.90;;;;;;;;;;4911294;29;20031;-85
2022/08/05 09:26:06;;;;;;;2.15;0.80;;;;;;;;;;4919802;29;20031;-84
2022/08/05 09:28:32;;;;;;;2.72;0.63;;;;;;;;;;4934541;29;20027;-84
2022/08/05 09:31:03;;;;;;;2.88;0.88;;;;;;;;;;4919502;29;20043;-84
2022/08/05 09:33:29;;;;;;;2.80;1.05;;;;;;;;;;4926934;29;20046;-84
2022/08/05 09:35:58;;;;;;;6.20;0.82;;;;;;;;;;4918987;29;20079;-84
2022/08/05 09:38:24;;;;;;;3.95;1.13;;;;;;;;;;4935392;29;20051;-83
2022/08/05 09:40:50;;;;;;;3.97;1.00;;;;;;;;;;4926886;29;20063;-85
2022/08/05 09:43:28;;;;;;;6.18;1.10;;;;;;;;;;4887397;29;20050;-84
2022/08/05 09:45:54;;;;;;;3.45;0.80;;;;;;;;;;4918731;29;20599;-85
2022/08/05 09:48:26;;;;;;;2.42;0.70;;;;;;;;;;4934030;29;20031;-84
2022/08/05 09:50:53;;;;;;;4.25;1.05;;;;;;;;;;4935208;29;20028;-84
2022/08/05 09:53:18;;;;;;;2.20;0.65;;;;;;;;;;4919371;29;20027;-84
2022/08/05 09:55:44;;;;;;;3.75;0.70;;;;;;;;;;4933131;29;20084;-84
2022/08/05 09:58:13;;;;;;;7.80;0.80;;;;;;;;;;4918489;29;20111;-84
2022/08/05 10:00:50;;;;;;;4.45;0.70;;;;;;;;;;4934171;29;20075;-84
2022/08/05 10:03:15;;;;;;;2.03;0.50;;;;;;;;;;4926438;29;20734;-85
2022/08/05 10:05:41;;;;;;;4.22;1.05;;;;;;;;;;4902819;29;20111;-85
2022/08/05 10:08:06;;;;;;;3.25;0.70;;;;;;;;;;4942985;29;20039;-85
2022/08/05 10:10:45;;;;;;;7.03;0.82;;;;;;;;;;4917386;29;20032;-84
2022/08/05 10:13:11;;;;;;;1.83;0.70;;;;;;;;;;4917987;29;20533;-84
2022/08/05 10:15:40;;;;;;;3.35;0.80;;;;;;;;;;4930686;29;20027;-84
2022/08/05 10:18:12;;;;;;;2.55;0.70;;;;;;;;;;4949350;29;20035;-85
2022/08/05 10:20:47;;;;;;;4.38;0.80;;;;;;;;;;4946576;29;20142;-84
2022/08/05 10:23:24;;;;;;;2.13;0.65;;;;;;;;;;4907875;29;20058;-85
2022/08/05 10:25:49;;;;;;;2.65;0.70;;;;;;;;;;4898262;29;20064;-84
2022/08/05 10:28:15;;;;;;;6.80;0.73;;;;;;;;;;4901257;29;20282;-84
2022/08/05 10:30:40;;;;;;;7.15;0.82;;;;;;;;;;4916817;29;20059;-85
2022/08/05 10:33:07;;;;;;;3.05;0.75;;;;;;;;;;4948770;29;20091;-85
2022/08/05 10:35:32;;;;;;;2.70;0.80;;;;;;;;;;4918753;29;20579;-83
2022/08/05 10:37:59;;;;;;;2.75;0.63;;;;;;;;;;4917779;29;20047;-84
2022/08/05 10:40:32;;;;;;;2.38;0.60;;;;;;;;;;4934298;29;20138;-86
2022/08/05 10:43:29;;;;;;;2.33;0.70;;;;;;;;;;4949684;29;20047;-84
2022/08/05 10:46:05;;;;;;;3.95;0.70;;;;;;;;;;4930912;29;20031;-84
2022/08/05 10:48:43;;;;;;;1.88;0.40;;;;;;;;;;4918764;29;20070;-84
2022/08/05 10:51:11;;;;;;;3.60;0.40;;;;;;;;;;4934195;29;20523;-84
2022/08/05 10:53:42;;;;;;;2.15;0.52;;;;;;;;;;4918088;29;20286;-84
2022/08/05 10:56:13;;;;;;;3.38;0.45;;;;;;;;;;4916615;29;20488;-84
2022/08/05 10:58:53;;;;;;;2.85;0.60;;;;;;;;;;4932502;29;20024;-84
2022/08/05 11:01:31;;;;;;;1.55;0.40;;;;;;;;;;4918144;29;20046;-84
2022/08/05 11:04:13;;;;;;;2.72;0.73;;;;;;;;;;4917381;29;20099;-84
2022/08/05 11:07:00;;;;;;;4.40;0.50;;;;;;;;;;4928766;29;20596;-84
2022/08/05 11:09:27;;;;;;;5.80;0.55;;;;;;;;;;4936830;29;20047;-83
2022/08/05 11:11:52;;;;;;;6.90;0.88;;;;;;;;;;4934478;29;20047;-83
2022/08/05 11:14:27;;;;;;;2.40;0.50;;;;;;;;;;4950337;29;20047;-83
2022/08/05 11:17:24;;;;;;;6.72;0.45;;;;;;;;;;4926807;29;20051;-84
2022/08/05 11:19:52;;;;;;;2.10;0.50;;;;;;;;;;4928944;29;20484;-83
2022/08/05 11:22:47;;;;;;;2.45;0.50;;;;;;;;;;4919512;29;20469;-84
2022/08/05 11:25:36;;;;;;;0.75;0.35;;;;;;;;;;4917712;29;20051;-84
2022/08/05 11:28:10;;;;;;;3.22;0.50;;;;;;;;;;4936873;29;20044;-84
2022/08/05 11:30:54;;;;;;;2.95;0.32;;;;;;;;;;4920584;29;20091;-84
2022/08/05 11:33:32;;;;;;;3.40;0.55;;;;;;;;;;4938473;29;20036;-84
2022/08/05 11:36:03;;;;;;;2.15;0.40;;;;;;;;;;4920487;29;20040;-84
2022/08/05 11:38:41;;;;;;;3.53;0.40;;;;;;;;;;4939031;29;20056;-85
2022/08/05 11:41:22;;;;;;;1.83;0.40;;;;;;;;;;4906713;29;20066;-84
2022/08/05 11:43:57;;;;;;;5.82;0.50;;;;;;;;;;4937629;29;20118;-84
2022/08/05 11:46:38;;;;;;;3.30;0.70;;;;;;;;;;4922721;29;20040;-84
2022/08/05 11:49:04;;;;;;;1.17;0.40;;;;;;;;;;4936815;29;20036;-84
2022/08/05 11:51:30;;;;;;;1.02;0.40;;;;;;;;;;4928811;29;20055;-84
2022/08/05 11:53:55;;;;;;;2.08;1.15;;;;;;;;;;4923343;29;20024;-85
2022/08/05 11:56:21;;;;;;;4.70;0.73;;;;;;;;;;4920695;29;20122;-84
2022/08/05 11:58:47;;;;;;;3.58;0.40;;;;;;;;;;4903156;29;20131;-85
2022/08/05 12:01:17;;;;;;;4.50;0.52;;;;;;;;;;4901860;29;20253;-84
2022/08/05 12:03:53;;;;;;;4.93;0.60;;;;;;;;;;4929249;29;20027;-84
2022/08/05 12:06:24;;;;;;;3.55;0.70;;;;;;;;;;4897477;29;20123;-85
2022/08/05 12:08:50;;;;;;;3.40;0.50;;;;;;;;;;4952444;29;20028;-84
2022/08/05 12:11:20;;;;;;;2.05;0.40;;;;;;;;;;4953342;29;20134;-85
2022/08/05 12:13:52;;;;;;;1.65;0.30;;;;;;;;;;4920721;29;20138;-84
2022/08/05 12:16:18;;;;;;;2.53;0.60;;;;;;;;;;4917963;29;20480;-84
2022/08/05 12:18:46;;;;;;;3.45;0.52;;;;;;;;;;4937452;29;20113;-85
2022/08/05 12:21:28;;;;;;;6.25;0.50;;;;;;;;;;4905654;29;20032;-85
2022/08/05 12:24:07;;;;;;;2.72;0.63;;;;;;;;;;4918701;29;20031;-84
2022/08/05 12:26:36;;;;;;;3.35;0.47;;;;;;;;;;4918568;29;20031;-84
2022/08/05 12:29:13;;;;;;;2.92;0.80;;;;;;;;;;4903601;29;20420;-85
2022/08/05 12:31:38;;;;;;;1.00;0.35;;;;;;;;;;4919344;29;20034;-85
2022/08/05 12:34:06;;;;;;;2.63;0.70;;;;;;;;;;4939411;29;20412;-85
2022/08/05 12:36:39;;;;;;;1.90;0.45;;;;;;;;;;4935131;29;20388;-85
2022/08/05 12:39:05;;;;;;;2.45;0.43;;;;;;;;;;4934604;29;20404;-86
2022/08/05 12:41:34;;;;;;;4.30;0.40;;;;;;;;;;4927497;29;20043;-85
2022/08/05 12:44:02;;;;;;;4.75;0.50;;;;;;;;;;4896463;29;20024;-85
2022/08/05 12:46:29;;;;;;;4.03;0.68;;;;;;;;;;4903198;29;20078;-85
2022/08/05 12:49:01;;;;;;;1.00;0.28;;;;;;;;;;4903758;29;20039;-85
2022/08/05 12:51:27;;;;;;;6.07;1.17;;;;;;;;;;4907883;29;20481;-85
2022/08/05 12:54:02;;;;;;;2.22;0.40;;;;;;;;;;4903367;29;20039;-86
2022/08/05 12:56:28;;;;;;;2.80;0.50;;;;;;;;;;4918664;29;20035;-86
2022/08/05 12:59:38;;;;;;;5.22;0.77;;;;;;;;;;4926105;29;20477;-86
2022/08/05 13:02:06;;;;;;;2.17;0.40;;;;;;;;;;4905025;29;20043;-86
2022/08/05 13:04:36;;;;;;;2.55;0.52;;;;;;;;;;4903259;29;20086;-85
2022/08/05 13:07:05;;;;;;;1.77;0.52;;;;;;;;;;4884445;29;20055;-85
2022/08/05 13:09:33;;;;;;;2.50;0.47;;;;;;;;;;4903964;29;20032;-85
2022/08/05 13:12:03;;;;;;;3.28;0.40;;;;;;;;;;4903348;29;20015;-85
2022/08/05 13:14:44;;;;;;;3.75;0.50;;;;;;;;;;4912770;29;20028;-86
2022/08/05 13:17:19;;;;;;;1.23;0.40;;;;;;;;;;4908560;29;20122;-86
2022/08/05 13:20:01;;;;;;;2.42;0.52;;;;;;;;;;4907333;29;20052;-85
2022/08/05 13:22:27;;;;;;;2.08;0.40;;;;;;;;;;4934574;29;20031;-86
2022/08/05 13:24:52;;;;;;;3.55;0.32;;;;;;;;;;4918982;29;20030;-85
2022/08/05 13:27:32;;;;;;;1.75;0.32;;;;;;;;;;4919487;29;20039;-86
2022/08/05 13:29:57;;;;;;;1.83;0.45;;;;;;;;;;4934933;29;20031;-85
2022/08/05 13:32:24;;;;;;;4.28;0.50;;;;;;;;;;4918359;29;20075;-86
2022/08/05 13:34:50;;;;;;;9.50;0.75;;;;;;;;;;4902064;29;20039;-85
2022/08/05 13:37:22;;;;;;;1.17;0.30;;;;;;;;;;4908143;29;20107;-85
2022/08/05 13:39:52;;;;;;;7.50;1.88;;;;;;;;;;4929888;29;20047;-85
2022/08/05 13:42:18;;;;;;;1.58;0.50;;;;;;;;;;4918601;29;20039;-86
2022/08/05 13:44:43;;;;;;;2.20;0.50;;;;;;;;;;4896311;29;20059;-84
2022/08/05 13:47:09;;;;;;;2.05;0.40;;;;;;;;;;4895750;29;20038;-85
2022/08/05 13:49:34;;;;;;;3.15;0.40;;;;;;;;;;4914719;29;20051;-85
2022/08/05 13:52:22;;;;;;;2.60;0.70;;;;;;;;;;4918817;29;20040;-84
2022/08/05 13:54:48;;;;;;;3.80;0.60;;;;;;;;;;4910950;29;20527;-83
2022/08/05 13:57:13;;;;;;;1.40;0.40;;;;;;;;;;4920059;29;20070;-84
2022/08/05 13:59:39;;;;;;;1.73;0.30;;;;;;;;;;4919267;29;20015;-84
2022/08/05 14:02:05;;;;;;;2.10;0.40;;;;;;;;;;4918795;29;20046;-84
2022/08/05 14:07:21;;;;;;;1.40;0.43;;;;;;;;;;4908859;29;20106;-86
2022/08/05 14:09:46;;;;;;;2.65;0.40;;;;;;;;;;4919262;29;20536;-84
2022/08/05 14:12:12;;;;;;;0.75;0.20;;;;;;;;;;4912451;29;20059;-83
2022/08/05 14:14:37;;;;;;;4.57;0.52;;;;;;;;;;4913364;29;20032;-84
2022/08/05 14:17:03;;;;;;;1.65;0.47;;;;;;;;;;4893983;29;20058;-85
2022/08/05 14:19:28;;;;;;;2.17;0.50;;;;;;;;;;4919922;29;20082;-85
2022/08/05 14:21:58;;;;;;;3.22;0.35;;;;;;;;;;4895602;29;20091;-84
2022/08/05 14:24:23;;;;;;;1.95;0.68;;;;;;;;;;4876529;29;20039;-84
2022/08/05 14:26:51;;;;;;;1.00;0.40;;;;;;;;;;4914375;29;20111;-84
2022/08/05 14:29:17;;;;;;;1.52;0.43;;;;;;;;;;4901983;29;20043;-84
2022/08/05 14:31:43;;;;;;;1.88;0.60;;;;;;;;;;4914228;29;20116;-84
2022/08/05 14:34:09;;;;;;;3.47;0.57;;;;;;;;;;4919751;29;20035;-84
2022/08/05 14:36:34;;;;;;;2.83;0.40;;;;;;;;;;4915880;29;20035;-84
2022/08/05 14:39:00;;;;;;;2.88;0.40;;;;;;;;;;4915459;29;20530;-84
2022/08/05 14:41:25;;;;;;;6.35;0.60;;;;;;;;;;4918158;29;20107;-84
2022/08/05 14:43:50;;;;;;;2.72;0.52;;;;;;;;;;4912346;29;20155;-84
2022/08/05 14:46:16;;;;;;;3.80;1.00;;;;;;;;;;4918107;29;20036;-84
2022/08/05 14:48:41;;;;;;;4.53;0.70;;;;;;;;;;4911418;29;20035;-84